createdAt,value
2018-11-04T00:00:54.226Z,101923.08
2018-11-04T00:05:57.354Z,101919.13
2018-11-04T00:11:00.553Z,101914.83
2018-11-04T00:16:03.779Z,101916.13
2018-11-04T00:21:06.939Z,101903.61
2018-11-04T00:26:10.080Z,101895.77
2018-11-04T00:31:13.204Z,101887.91
2018-11-04T00:36:16.376Z,101886.54
2018-11-04T00:41:19.538Z,101875.24
2018-11-04T00:46:22.652Z,101876.42
2018-11-04T00:51:25.767Z,101869.48
2018-11-04T00:56:28.890Z,101871.14
2018-11-04T01:01:32.102Z,101857.68
2018-11-04T01:06:35.202Z,101854.10
2018-11-04T01:11:38.413Z,101846.23
2018-11-04T01:16:41.696Z,101838.84
2018-11-04T01:21:44.910Z,101827.17
2018-11-04T01:26:48.027Z,101818.50
2018-11-04T01:31:51.139Z,101809.74
2018-11-04T01:36:54.295Z,101799.77
2018-11-04T01:41:57.409Z,101783.31
2018-11-04T01:47:00.535Z,101794.16
2018-11-04T01:52:03.687Z,101774.75
2018-11-04T01:57:06.834Z,101770.94
2018-11-04T02:02:09.970Z,101761.05
2018-11-04T02:07:13.079Z,101760.64
2018-11-04T02:12:16.203Z,101751.98
2018-11-04T02:17:19.311Z,101745.47
2018-11-04T02:22:22.406Z,101735.05
2018-11-04T02:27:25.590Z,101721.66
2018-11-04T02:32:28.710Z,101723.84
2018-11-04T02:37:31.813Z,101719.09
2018-11-04T02:42:34.916Z,101716.89
2018-11-04T02:47:38.310Z,101704.74
2018-11-04T02:52:41.397Z,101703.02
2018-11-04T02:57:44.485Z,101698.66
2018-11-04T03:02:47.610Z,101691.70
2018-11-04T03:07:50.707Z,101679.53
2018-11-04T03:12:53.786Z,101681.26
2018-11-04T03:17:56.887Z,101670.86
2018-11-04T03:23:00.280Z,101663.48
2018-11-04T03:28:03.453Z,101659.60
2018-11-04T03:33:07.430Z,101653.61
2018-11-04T03:38:10.640Z,101647.95
2018-11-04T03:43:13.821Z,101645.33
2018-11-04T03:48:16.969Z,101618.93
2018-11-04T03:53:20.513Z,101640.11
2018-11-04T03:58:23.628Z,101640.97
2018-11-04T04:03:26.730Z,101632.30
2018-11-04T04:08:30.156Z,101626.14
2018-11-04T04:13:33.721Z,101629.52
2018-11-04T04:18:36.871Z,101622.17
2018-11-04T04:23:41.558Z,101618.34
2018-11-04T04:28:44.656Z,101611.00
2018-11-04T04:33:47.727Z,101611.80
2018-11-04T04:38:50.834Z,101616.97
2018-11-04T04:43:53.925Z,101612.69
2018-11-04T04:48:57.094Z,101604.84
2018-11-04T04:54:00.298Z,101602.80
2018-11-04T04:59:04.047Z,101594.58
2018-11-04T05:04:07.153Z,101596.83
2018-11-04T05:09:10.258Z,101589.58
2018-11-04T05:14:13.378Z,101584.45
2018-11-04T05:19:16.481Z,101587.13
2018-11-04T05:24:19.619Z,101596.67
2018-11-04T05:29:22.742Z,101597.14
2018-11-04T05:34:25.866Z,101598.04
2018-11-04T05:39:29.038Z,101592.06
2018-11-04T05:44:32.151Z,101592.94
2018-11-04T05:49:35.344Z,101590.00
2018-11-04T05:54:38.666Z,101591.30
2018-11-04T05:59:42.191Z,101594.77
2018-11-04T06:04:45.417Z,101580.52
2018-11-04T06:09:48.569Z,101580.97
2018-11-04T06:14:51.727Z,101575.80
2018-11-04T06:19:54.872Z,101577.08
2018-11-04T06:24:58.114Z,101576.22
2018-11-04T06:30:01.255Z,101572.77
2018-11-04T06:35:05.306Z,101569.30
2018-11-04T06:40:11.397Z,101568.89
2018-11-04T06:45:14.654Z,101573.64
2018-11-04T06:50:18.157Z,101577.94
2018-11-04T06:55:21.418Z,101574.48
2018-11-04T07:00:24.821Z,101572.73
2018-11-04T07:05:28.180Z,101583.13
2018-11-04T07:10:31.478Z,101574.01
2018-11-04T07:15:35.010Z,101568.77
2018-11-04T07:20:38.234Z,101570.02
2018-11-04T07:25:41.461Z,101564.36
2018-11-04T07:30:44.649Z,101559.56
2018-11-04T07:35:47.813Z,101562.52
2018-11-04T07:40:50.959Z,101555.94
2018-11-04T07:45:54.102Z,101556.78
2018-11-04T07:50:57.242Z,101554.92
2018-11-04T07:56:00.413Z,101552.69
2018-11-04T08:01:03.690Z,101556.97
2018-11-04T08:06:06.893Z,101550.38
2018-11-04T08:11:10.911Z,101541.14
2018-11-04T08:16:14.069Z,101536.22
2018-11-04T08:21:17.506Z,101538.73
2018-11-04T08:26:20.597Z,101528.64
2018-11-04T08:31:23.717Z,101528.48
2018-11-04T08:36:26.864Z,101524.28
2018-11-04T08:41:29.996Z,101516.98
2018-11-04T08:46:33.225Z,101509.27
2018-11-04T08:51:36.464Z,101507.74
2018-11-04T08:56:39.671Z,101501.80
2018-11-04T09:01:42.793Z,101497.92
2018-11-04T09:06:45.945Z,101483.22
2018-11-04T09:11:49.153Z,101482.03
2018-11-04T09:16:52.323Z,101487.03
2018-11-04T09:21:55.671Z,101477.48
2018-11-04T09:26:58.639Z,101476.55
2018-11-04T09:32:01.930Z,101471.74
2018-11-04T09:37:05.314Z,101464.97
2018-11-04T09:42:08.471Z,101470.96
2018-11-04T09:47:11.702Z,101459.96
2018-11-04T09:52:14.814Z,101463.44
2018-11-04T09:57:17.950Z,101444.05
2018-11-04T10:02:21.069Z,101443.02
2018-11-04T10:07:24.206Z,101441.48
2018-11-04T10:12:27.356Z,101434.94
2018-11-04T10:17:30.474Z,101426.63
2018-11-04T10:22:33.699Z,101420.09
2018-11-04T10:27:37.283Z,101417.27
2018-11-04T10:32:40.540Z,101413.24
2018-11-04T10:37:43.712Z,101407.80
2018-11-04T10:42:46.904Z,101410.52
2018-11-04T10:47:50.045Z,101413.20
2018-11-04T10:52:53.208Z,101409.36
2018-11-04T10:57:59.129Z,101402.86
2018-11-04T11:03:02.489Z,101398.39
2018-11-04T11:08:05.808Z,101395.34
2018-11-04T11:13:08.958Z,101391.99
2018-11-04T11:18:12.082Z,101383.64
2018-11-04T11:23:15.319Z,101380.48
2018-11-04T11:28:18.391Z,101383.81
2018-11-04T11:33:21.546Z,101366.53
2018-11-04T11:38:24.737Z,101358.78
2018-11-04T11:43:27.893Z,101342.91
2018-11-04T11:48:31.390Z,101340.23
2018-11-04T11:53:34.730Z,101339.80
2018-11-04T11:58:38.128Z,101334.99
2018-11-04T12:03:41.889Z,101314.83
2018-11-04T12:08:46.595Z,101333.02
2018-11-04T12:13:49.831Z,101324.14
2018-11-04T12:18:53.010Z,101300.88
2018-11-04T12:23:56.147Z,101315.47
2018-11-04T12:28:59.278Z,101300.25
2018-11-04T12:34:02.414Z,101299.34
2018-11-04T12:39:08.608Z,101285.86
2018-11-04T12:44:11.920Z,101278.02
2018-11-04T12:49:15.191Z,101275.89
2018-11-04T12:54:18.410Z,101272.90
2018-11-04T12:59:21.750Z,101266.53
2018-11-04T13:04:25.038Z,101268.70
2018-11-04T13:09:28.229Z,101265.78
2018-11-04T13:14:31.465Z,101255.44
2018-11-04T13:19:34.700Z,101247.50
2018-11-04T13:24:37.910Z,101239.96
2018-11-04T13:29:41.265Z,101236.34
2018-11-04T13:34:44.465Z,101231.20
2018-11-04T13:39:47.750Z,101235.53
2018-11-04T13:44:52.161Z,101238.17
2018-11-04T13:49:55.292Z,101232.06
2018-11-04T13:54:58.433Z,101231.36
2018-11-04T14:00:01.647Z,101223.53
2018-11-04T14:05:05.889Z,101220.73
2018-11-04T14:10:10.514Z,101213.42
2018-11-04T14:15:14.152Z,101202.61
2018-11-04T14:20:17.293Z,101196.70
2018-11-04T14:25:20.477Z,101193.02
2018-11-04T14:30:23.618Z,101186.84
2018-11-04T14:35:26.831Z,101176.28
2018-11-04T14:40:30.753Z,101167.52
2018-11-04T14:45:35.588Z,101172.27
2018-11-04T14:50:39.710Z,101166.78
2018-11-04T14:55:43.674Z,101168.01
2018-11-04T15:00:47.391Z,101173.46
2018-11-04T15:05:50.532Z,101172.28
2018-11-04T15:10:53.714Z,101177.34
2018-11-04T15:15:56.899Z,101172.13
2018-11-04T15:21:00.090Z,101153.48
2018-11-04T15:26:03.321Z,101155.02
2018-11-04T15:31:06.516Z,101150.55
2018-11-04T15:36:09.691Z,101146.58
2018-11-04T15:41:12.805Z,101144.94
2018-11-04T15:46:16.006Z,101141.40
2018-11-04T15:51:21.051Z,101153.17
2018-11-04T15:56:26.610Z,101144.04
2018-11-04T16:01:31.615Z,101133.17
2018-11-04T16:06:36.278Z,101139.17
2018-11-04T16:11:40.969Z,101128.30
2018-11-04T16:16:45.740Z,101128.97
2018-11-04T16:21:50.077Z,101129.44
2018-11-04T16:26:53.436Z,101132.25
2018-11-04T16:31:57.202Z,101128.59
2018-11-04T16:37:00.327Z,101127.66
2018-11-04T16:42:03.490Z,101127.57
2018-11-04T16:47:06.634Z,101126.31
2018-11-04T16:52:09.806Z,101127.83
2018-11-04T16:57:12.982Z,101127.22
2018-11-04T17:02:16.196Z,101130.10
2018-11-04T17:07:19.370Z,101130.98
2018-11-04T17:12:22.542Z,101124.05
2018-11-04T17:17:25.674Z,101128.58
2018-11-04T17:22:28.961Z,101126.08
2018-11-04T17:27:33.210Z,101143.23
2018-11-04T17:32:37.273Z,101140.84
2018-11-04T17:37:41.303Z,101136.84
2018-11-04T17:42:44.697Z,101136.86
2018-11-04T17:47:47.858Z,101131.97
2018-11-04T17:52:51.110Z,101129.65
2018-11-04T17:57:54.275Z,101130.39
2018-11-04T18:02:57.660Z,101126.16
2018-11-04T18:08:01.917Z,101127.34
2018-11-04T18:13:05.274Z,101122.09
2018-11-04T18:18:08.482Z,101113.89
2018-11-04T18:23:11.618Z,101116.95
2018-11-04T18:28:14.777Z,101127.83
2018-11-04T18:33:17.918Z,101131.77
2018-11-04T18:38:21.081Z,101134.45
2018-11-04T18:43:24.380Z,101137.80
2018-11-04T18:48:27.688Z,101140.91
2018-11-04T18:53:31.083Z,101122.59
2018-11-04T18:58:34.328Z,101127.02
2018-11-04T19:03:37.666Z,101126.64
2018-11-04T19:08:42.100Z,101129.96
2018-11-04T19:13:47.761Z,101125.66
2018-11-04T19:18:52.498Z,101128.98
2018-11-04T19:23:57.507Z,101134.48
2018-11-04T19:29:02.377Z,101130.98
2018-11-04T19:34:07.377Z,101133.62
2018-11-04T19:39:12.776Z,101115.70
2018-11-04T19:44:16.816Z,101113.53
2018-11-04T19:49:21.451Z,101097.31
2018-11-04T19:54:26.801Z,101106.15
2018-11-04T19:59:31.717Z,101106.96
2018-11-04T20:04:35.248Z,101090.00
2018-11-04T20:09:38.430Z,101083.44
2018-11-04T20:14:41.658Z,101083.44
2018-11-04T20:19:50.529Z,101078.25
2018-11-04T20:25:00.131Z,101076.19
2018-11-04T20:30:04.764Z,101084.81
2018-11-04T20:35:08.529Z,101071.31
2018-11-04T20:40:17.850Z,101065.70
2018-11-04T20:45:21.776Z,101056.51
2018-11-04T20:50:31.658Z,101059.31
2018-11-04T20:55:41.116Z,101060.12
2018-11-04T21:00:44.806Z,101049.56
2018-11-04T21:05:48.023Z,101048.45
2018-11-04T21:10:51.966Z,101045.94
2018-11-04T21:15:55.435Z,101041.94
2018-11-04T21:20:58.501Z,101036.02
2018-11-04T21:26:01.654Z,101032.70
2018-11-04T21:31:04.902Z,101034.88
2018-11-04T21:36:08.077Z,101028.83
2018-11-04T21:41:11.286Z,101024.30
2018-11-04T21:46:14.773Z,101019.93
2018-11-04T21:51:18.135Z,101014.00
2018-11-04T21:56:21.441Z,101005.67
2018-11-04T22:01:24.509Z,101002.48
2018-11-04T22:06:27.677Z,101006.11
2018-11-04T22:11:30.817Z,101010.64
2018-11-04T22:16:34.082Z,100994.91
2018-11-04T22:21:37.570Z,100999.91
2018-11-04T22:26:41.069Z,100995.39
2018-11-04T22:31:44.419Z,100986.48
2018-11-04T22:36:47.687Z,100977.64
2018-11-04T22:41:50.846Z,100979.23
2018-11-04T22:46:54.035Z,100971.36
2018-11-04T22:51:57.211Z,100971.92
2018-11-04T22:57:00.441Z,100973.59
2018-11-04T23:02:04.797Z,100973.47
2018-11-04T23:07:08.041Z,100971.77
2018-11-04T23:12:11.329Z,100957.89
2018-11-04T23:17:14.555Z,100949.78
2018-11-04T23:22:17.876Z,100935.84
2018-11-04T23:27:21.107Z,100931.27
2018-11-04T23:32:24.288Z,100931.63
2018-11-04T23:37:27.497Z,100839.56
2018-11-04T23:42:30.684Z,100926.72
2018-11-04T23:47:33.835Z,100915.88
2018-11-04T23:52:37.035Z,100909.95
2018-11-04T23:57:40.173Z,100901.59
